CT1AKV-10 Estrada Real PT current weather conditions

sailwx.info

Wind from 298 at 5 knots gusting 13

Air temperature 32.8° C
Dewpoint -2.9° C

Last reported at 2015-Jul-04 15:45 UTC.
Time now 2015-Jul-04 17:01 UTC

Location: N 39°11' W 008°44'.
View on Google Maps.

See reports from other nearby stations

  
Tides and Currents Weather Stations Pressure Air Temp Water Temp Dewpoint Dewpoint Depression Visibility Wind Speed Wind Dir Waves Ship Positions
date/time (UTC)wind fromknots sea level pressurealtimeterstation pressurevisibilityair tempwater tempwave heightnotes
2015-Jul-04 15:45 298 5 gusting 13 32.8
2015-Jul-04 15:30 293 6 gusting 14 32.8
2015-Jul-04 15:15 314 5 gusting 12 33.3
2015-Jul-04 15:00 301 5 gusting 13 33.9
2015-Jul-04 14:45 294 5 gusting 14 34.4
2015-Jul-04 14:30 320 4 gusting 11 34.4
2015-Jul-04 14:15 283 3 gusting 9 35.6
2015-Jul-04 14:00 271 2 gusting 11 35.6
2015-Jul-04 13:45 305 3 gusting 10 36.1
2015-Jul-04 13:30 352 1 gusting 7 36.7
2015-Jul-04 13:15 254 2 gusting 6 36.1
2015-Jul-04 13:00 312 2 gusting 6 35.6
2015-Jul-04 12:45 298 1 gusting 6 35.6
2015-Jul-04 12:30 232 1 gusting 6 35.0
2015-Jul-04 12:15 325 2 gusting 8 35.0
2015-Jul-04 12:00 297 1 gusting 6 34.4
2015-Jul-04 11:45 317 2 gusting 9 33.9
2015-Jul-04 11:30 276 1 gusting 6 32.8
2015-Jul-04 11:15 307 2 gusting 6 32.2
2015-Jul-04 11:00 305 1 gusting 6 31.7
2015-Jul-04 10:45 318 2 gusting 6 30.6
2015-Jul-04 10:30 313 2 gusting 6 30.6
2015-Jul-04 10:15 295 1 gusting 5 30.0
2015-Jul-04 10:00 322 0 gusting 6 29.4
2015-Jul-03 21:00 295 3 gusting 7 20.0
2015-Jul-03 20:45 309 3 gusting 8 20.6
2015-Jul-03 20:30 318 4 gusting 8 20.6
2015-Jul-03 20:15 304 3 gusting 9 21.1
2015-Jul-03 20:00 321 3 gusting 7 21.7
2015-Jul-03 19:45 311 4 gusting 10 22.2
2015-Jul-03 19:30 304 3 gusting 12 22.8
2015-Jul-03 19:15 306 5 gusting 11 23.9
2015-Jul-03 19:00 320 6 gusting 13 26.1
2015-Jul-03 18:45 300 5 gusting 13 26.7
2015-Jul-03 18:30 330 6 gusting 13 27.2
2015-Jul-03 18:15 309 6 gusting 14 27.8
2015-Jul-03 18:00 271 5 gusting 13 28.3
2015-Jul-03 17:45 317 5 gusting 13 28.9
2015-Jul-03 17:30 265 4 gusting 11 29.4
2015-Jul-03 17:15 324 6 gusting 12 29.4
2015-Jul-03 17:00 308 5 gusting 12 30.0
2015-Jul-03 16:45 311 5 gusting 13 30.6
2015-Jul-03 16:30 300 6 gusting 16 30.6
2015-Jul-03 16:15 310 6 gusting 13 31.1
2015-Jul-03 16:00 281 5 gusting 11 32.2
2015-Jul-03 15:45 318 5 gusting 12 32.8
2015-Jul-03 15:30 313 4 gusting 11 33.3
2015-Jul-03 15:15 273 2 gusting 10 33.9
2015-Jul-03 15:00 339 3 gusting 8 33.9
2015-Jul-03 14:45 286 3 gusting 7 33.3
2015-Jul-03 14:30 313 3 gusting 9 34.4
2015-Jul-03 14:15 287 0 gusting 6 34.4
2015-Jul-03 14:00 167 1 gusting 6 33.3
2015-Jul-03 13:45 107 1 gusting 9 33.3
2015-Jul-03 13:30 123 1 gusting 6 33.3
2015-Jul-03 13:15 176 1 gusting 6 32.8
2015-Jul-02 21:15 301 4 gusting 11 18.3
2015-Jul-02 21:00 312 3 gusting 9 18.3
2015-Jul-02 20:45 307 4 gusting 9 18.9
2015-Jul-02 20:30 304 4 gusting 9 19.4
2015-Jul-02 20:15 296 3 gusting 9 20.0
2015-Jul-02 20:00 309 3 gusting 9 20.6
2015-Jul-02 19:45 309 4 gusting 9 21.1
2015-Jul-02 19:30 329 4 gusting 11 21.7
2015-Jul-02 19:15 311 5 gusting 10 22.8
2015-Jul-02 19:00 313 5 gusting 13 24.4
2015-Jul-02 18:45 307 5 gusting 12 25.0
2015-Jul-02 18:30 310 6 gusting 13 25.6
2015-Jul-02 18:15 314 6 gusting 13 26.1
2015-Jul-02 18:00 318 5 gusting 12 26.7
2015-Jul-02 17:45 329 5 gusting 11 27.2
2015-Jul-02 17:30 315 6 gusting 12 27.2
2015-Jul-02 17:15 304 6 gusting 14 28.3
2015-Jul-02 17:00 288 4 gusting 10 28.9